Lushi, China
Current Conditions -  °F | °C
As of 8:00 AM on Thursday 27 Nov 2014 (Local Time) from ZLXY Reporting Station
Haze Haze  
Wind Chill: 40°   Ceiling: 7000
Heat Index: 43°   Visibility: 0.75mi
Dew Point: 43°   Wind: 4mph
Humidity: 100%   Direction: 300°WNW
Pressure: 30.09"   Gusts: NA
Location:  34.05°N, 111.03°E
Report Text: ZLXY 270000Z 30002MPS 1200 R23R/1500N R23L/2000N BROVC07006/06 Q1019 NOSIG
Loading
Personal Weather Stations






























Interactive Weather Map New forecast layout! Learn more

10-Day Weather Forecast

Advertisements
Track Severe Weather on mobile